createdAt,value
2023-01-01T00:00:37.668Z,61.75
2023-01-01T00:03:04.250Z,61.10
2023-01-01T00:05:30.784Z,61.05
2023-01-01T00:08:04.339Z,64.50
2023-01-01T00:10:31.830Z,64.45
2023-01-01T00:12:59.437Z,53.80
2023-01-01T00:15:27.324Z,53.53
2023-01-01T00:17:54.190Z,48.95
2023-01-01T00:20:20.966Z,49.05
2023-01-01T00:22:56.142Z,41.50
2023-01-01T00:25:24.238Z,45.20
2023-01-01T00:27:50.915Z,40.78
2023-01-01T00:30:17.517Z,50.08
2023-01-01T00:32:55.493Z,55.00
2023-01-01T00:35:26.204Z,60.40
2023-01-01T00:37:54.045Z,52.35
2023-01-01T00:40:20.952Z,57.20
2023-01-01T00:42:47.594Z,51.95
2023-01-01T00:45:20.630Z,52.47
2023-01-01T00:47:48.671Z,52.08
2023-01-01T00:50:15.556Z,50.63
2023-01-01T00:52:42.142Z,48.75
2023-01-01T00:55:09.302Z,48.72
2023-01-01T00:57:35.962Z,49.28
2023-01-01T01:00:02.589Z,50.10
2023-01-01T01:02:29.326Z,49.58
2023-01-01T01:04:56.333Z,58.38
2023-01-01T01:07:23.114Z,60.22
2023-01-01T01:09:49.675Z,56.17
2023-01-01T01:12:17.726Z,57.63
2023-01-01T01:14:46.191Z,58.17
2023-01-01T01:17:12.818Z,59.45
2023-01-01T01:19:39.520Z,59.55
2023-01-01T01:22:06.271Z,60.13
2023-01-01T01:24:32.867Z,60.15
2023-01-01T01:26:59.380Z,63.85
2023-01-01T01:29:26.026Z,63.35
2023-01-01T01:31:52.575Z,64.50
2023-01-01T01:34:25.600Z,66.05
2023-01-01T01:36:54.339Z,63.55
2023-01-01T01:39:20.931Z,60.63
2023-01-01T01:41:47.484Z,60.80
2023-01-01T01:44:51.439Z,61.53
2023-01-01T01:47:38.074Z,61.05
2023-01-01T01:50:32.429Z,61.38
2023-01-01T01:53:10.333Z,61.78
2023-01-01T01:55:41.592Z,64.18
2023-01-01T01:58:09.930Z,67.13
2023-01-01T02:00:36.702Z,66.60
2023-01-01T02:03:08.296Z,64.13
2023-01-01T02:05:36.172Z,67.15
2023-01-01T02:08:06.981Z,69.47
2023-01-01T02:10:33.615Z,71.50
2023-01-01T02:13:00.888Z,68.82
2023-01-01T02:15:36.221Z,72.93
2023-01-01T02:18:15.333Z,74.10
2023-01-01T02:21:12.664Z,72.53
2023-01-01T02:23:54.287Z,69.15
2023-01-01T02:26:48.652Z,71.53
2023-01-01T02:29:33.147Z,71.07
2023-01-01T02:32:10.921Z,74.70
2023-01-01T02:34:46.650Z,71.85
2023-01-01T02:37:17.482Z,76.13
2023-01-01T02:39:53.735Z,76.95
2023-01-01T02:42:23.628Z,81.40
2023-01-01T02:44:53.850Z,81.18
2023-01-01T02:47:21.139Z,80.10
2023-01-01T02:50:08.512Z,80.28
2023-01-01T02:52:56.672Z,78.18
2023-01-01T02:55:48.350Z,79.15
2023-01-01T02:58:36.356Z,75.72
2023-01-01T03:01:38.506Z,81.53
2023-01-01T03:04:13.027Z,77.50
2023-01-01T03:07:14.480Z,78.15
2023-01-01T03:10:09.976Z,81.38
2023-01-01T03:15:29.113Z,73.28
2023-01-01T03:18:17.332Z,81.05
2023-01-01T03:20:47.817Z,85.80
2023-01-01T03:23:20.271Z,88.22
2023-01-01T03:25:53.612Z,87.57
2023-01-01T03:28:28.813Z,78.90
2023-01-01T03:30:57.636Z,80.22
2023-01-01T03:33:32.514Z,78.90
2023-01-01T03:36:11.898Z,80.05
2023-01-01T03:38:43.359Z,81.90
2023-01-01T03:41:35.589Z,86.18
2023-01-01T03:44:15.983Z,81.97
2023-01-01T03:46:42.716Z,80.25
2023-01-01T03:49:11.610Z,80.63
2023-01-01T03:51:54.699Z,84.25
2023-01-01T03:54:42.986Z,81.35
2023-01-01T03:57:19.506Z,75.45
2023-01-01T04:00:05.577Z,78.93
2023-01-01T04:02:37.874Z,79.32
2023-01-01T04:05:07.457Z,80.78
2023-01-01T04:07:34.938Z,84.40
2023-01-01T04:10:02.679Z,83.25
2023-01-01T04:12:30.537Z,85.22
2023-01-01T04:14:57.125Z,86.60
2023-01-01T04:17:23.676Z,86.57
2023-01-01T04:19:54.871Z,82.22
2023-01-01T04:22:23.633Z,86.22
2023-01-01T04:24:50.517Z,84.82
2023-01-01T04:27:17.073Z,83.80
2023-01-01T04:29:43.681Z,83.97
2023-01-01T04:32:10.264Z,84.63
2023-01-01T04:34:36.818Z,91.30
2023-01-01T04:37:05.828Z,88.75
2023-01-01T04:39:36.275Z,91.07
2023-01-01T04:42:02.816Z,85.40
2023-01-01T04:44:29.451Z,89.18
2023-01-01T04:47:00.080Z,84.55
2023-01-01T04:49:27.552Z,87.68
2023-01-01T04:51:54.117Z,86.43
2023-01-01T04:54:20.645Z,88.40
2023-01-01T04:56:47.187Z,89.13
2023-01-01T04:59:13.749Z,85.47
2023-01-01T05:01:40.458Z,87.43
2023-01-01T05:04:07.128Z,85.55
2023-01-01T05:06:33.715Z,85.18
2023-01-01T05:09:01.179Z,89.22
2023-01-01T05:11:29.605Z,89.75
2023-01-01T05:13:59.015Z,88.05
2023-01-01T05:16:32.748Z,87.95
2023-01-01T05:19:00.162Z,86.57
2023-01-01T05:21:34.356Z,92.75
2023-01-01T05:24:07.018Z,83.95
2023-01-01T05:26:40.528Z,89.40
2023-01-01T05:29:13.713Z,87.03
2023-01-01T05:31:43.064Z,86.68
2023-01-01T05:34:09.781Z,95.00
2023-01-01T05:36:39.068Z,89.78
2023-01-01T05:39:11.978Z,90.60
2023-01-01T05:41:39.046Z,89.60
2023-01-01T05:44:07.330Z,88.07
2023-01-01T05:46:33.945Z,89.75
2023-01-01T05:49:00.839Z,91.93
2023-01-01T05:51:29.328Z,93.70
2023-01-01T05:53:56.951Z,92.38
2023-01-01T05:56:23.705Z,89.05
2023-01-01T05:58:50.632Z,91.50
2023-01-01T06:01:28.704Z,86.97
2023-01-01T06:03:57.546Z,87.38
2023-01-01T06:06:26.580Z,87.68
2023-01-01T06:08:58.572Z,91.25
2023-01-01T06:11:26.473Z,89.38
2023-01-01T06:13:54.917Z,86.57
2023-01-01T06:16:21.650Z,91.20
2023-01-01T06:18:48.603Z,88.03
2023-01-01T06:21:17.733Z,91.70
2023-01-01T06:23:44.996Z,86.57
2023-01-01T06:26:17.520Z,86.00
2023-01-01T06:28:45.085Z,86.18
2023-01-01T06:31:14.600Z,87.40
2023-01-01T06:33:41.438Z,86.18
2023-01-01T06:36:10.613Z,89.85
2023-01-01T06:38:39.566Z,94.70
2023-01-01T06:41:08.519Z,87.57
2023-01-01T06:43:36.150Z,91.50
2023-01-01T06:46:05.968Z,88.20
2023-01-01T06:48:36.040Z,87.97
2023-01-01T06:51:07.731Z,87.85
2023-01-01T06:53:34.768Z,86.00
2023-01-01T06:56:01.440Z,88.32
2023-01-01T06:58:28.411Z,86.47
2023-01-01T07:00:55.207Z,85.75
2023-01-01T07:03:21.929Z,82.60
2023-01-01T07:05:48.527Z,84.50
2023-01-01T07:08:15.097Z,86.05
2023-01-01T07:10:41.718Z,87.60
2023-01-01T07:13:08.285Z,87.82
2023-01-01T07:15:34.942Z,83.95
2023-01-01T07:18:01.532Z,81.47
2023-01-01T07:20:28.114Z,83.68
2023-01-01T07:22:54.663Z,87.90
2023-01-01T07:25:21.243Z,85.47
2023-01-01T07:27:47.824Z,87.50
2023-01-01T07:30:14.480Z,89.70
2023-01-01T07:32:41.063Z,88.47
2023-01-01T07:35:07.961Z,86.43
2023-01-01T07:37:34.677Z,85.07
2023-01-01T07:40:01.315Z,90.35
2023-01-01T07:42:27.845Z,84.57
2023-01-01T07:44:54.393Z,87.82
2023-01-01T07:47:23.655Z,86.45
2023-01-01T07:49:51.205Z,86.47
2023-01-01T07:52:18.196Z,89.07
2023-01-01T07:54:45.067Z,92.72
2023-01-01T07:57:11.780Z,94.38
2023-01-01T07:59:38.545Z,86.75
2023-01-01T08:02:05.225Z,87.68
2023-01-01T08:04:31.870Z,87.40
2023-01-01T08:06:58.413Z,89.05
2023-01-01T08:09:25.002Z,90.72
2023-01-01T08:11:53.187Z,91.13
2023-01-01T08:14:19.844Z,93.60
2023-01-01T08:16:46.422Z,92.10
2023-01-01T08:19:13.099Z,89.05
2023-01-01T08:21:39.656Z,88.53
2023-01-01T08:24:06.410Z,96.20
2023-01-01T08:26:35.081Z,87.60
2023-01-01T08:29:06.338Z,86.57
2023-01-01T08:31:34.367Z,84.80
2023-01-01T08:34:00.976Z,83.72
2023-01-01T08:36:27.642Z,80.65
2023-01-01T08:38:54.248Z,76.40
2023-01-01T08:41:20.853Z,74.00
2023-01-01T08:43:47.439Z,78.13
2023-01-01T08:46:13.992Z,69.97
2023-01-01T08:48:40.726Z,66.57
2023-01-01T08:51:07.348Z,67.80
2023-01-01T08:53:33.999Z,67.03
2023-01-01T08:56:06.424Z,64.13
2023-01-01T08:58:35.350Z,59.35
2023-01-01T09:01:02.159Z,60.15
2023-01-01T09:03:30.181Z,58.88
2023-01-01T09:05:56.778Z,56.17
2023-01-01T09:08:23.796Z,55.05
2023-01-01T09:10:50.861Z,51.15
2023-01-01T09:13:21.369Z,52.85
2023-01-01T09:15:48.373Z,50.80
2023-01-01T09:18:14.989Z,53.22
2023-01-01T09:20:41.635Z,56.10
2023-01-01T09:23:08.823Z,69.75
2023-01-01T09:25:35.811Z,98.10
2023-01-01T09:28:05.599Z,84.10
2023-01-01T09:30:32.896Z,85.15
2023-01-01T09:32:59.463Z,79.93
2023-01-01T09:35:26.037Z,77.43
2023-01-01T09:37:52.694Z,76.95
2023-01-01T09:40:51.799Z,77.82
2023-01-01T09:43:20.988Z,71.60
2023-01-01T09:46:00.450Z,66.50
2023-01-01T09:48:29.834Z,85.55
2023-01-01T09:50:57.995Z,112.97
2023-01-01T09:53:47.832Z,178.05
2023-01-01T09:56:29.608Z,149.75
2023-01-01T09:58:59.139Z,129.77
2023-01-01T10:01:42.975Z,252.52
2023-01-01T10:04:31.349Z,243.45
2023-01-01T10:07:00.795Z,218.07
2023-01-01T10:09:27.294Z,158.98
2023-01-01T10:12:12.075Z,144.25
2023-01-01T10:15:00.674Z,79.28
2023-01-01T10:17:35.589Z,87.43
2023-01-01T10:22:44.688Z,148.30
2023-01-01T10:25:18.414Z,63.58
2023-01-01T10:27:59.732Z,51.70
2023-01-01T10:30:28.186Z,72.13
2023-01-01T10:32:56.199Z,78.45
2023-01-01T10:35:31.220Z,54.33
2023-01-01T10:38:02.320Z,37.67
2023-01-01T10:40:29.893Z,41.45
2023-01-01T10:42:59.594Z,43.03
2023-01-01T10:45:50.848Z,128.70
2023-01-01T10:48:21.328Z,78.60
2023-01-01T10:50:56.128Z,62.13
2023-01-01T10:53:39.192Z,43.10
2023-01-01T10:56:12.374Z,30.98
2023-01-01T10:58:50.955Z,30.15
2023-01-01T11:01:17.689Z,25.10
2023-01-01T11:03:59.623Z,25.25
2023-01-01T11:06:27.848Z,26.08
2023-01-01T11:08:59.833Z,25.67
2023-01-01T11:11:32.611Z,26.27
2023-01-01T11:14:04.541Z,25.77
2023-01-01T11:16:31.785Z,26.15
2023-01-01T11:19:06.940Z,24.67
2023-01-01T11:21:34.776Z,26.15
2023-01-01T11:24:19.148Z,27.30
2023-01-01T11:29:30.445Z,21.83
2023-01-01T11:31:58.799Z,23.20
2023-01-01T11:34:37.243Z,22.20
2023-01-01T11:37:34.326Z,23.20
2023-01-01T11:40:02.065Z,21.13
2023-01-01T11:42:31.350Z,22.52
2023-01-01T11:45:01.652Z,21.75
2023-01-01T11:47:33.787Z,23.35
2023-01-01T11:50:09.015Z,23.63
2023-01-01T11:52:44.741Z,23.85
2023-01-01T11:55:50.795Z,24.92
2023-01-01T11:58:28.649Z,23.98
2023-01-01T12:00:59.361Z,23.45
2023-01-01T12:03:34.298Z,25.10
2023-01-01T12:06:07.445Z,24.50
2023-01-01T12:08:47.068Z,25.25
2023-01-01T12:11:34.872Z,23.70
2023-01-01T12:14:32.727Z,24.60
2023-01-01T12:17:05.408Z,28.33
2023-01-01T12:19:40.352Z,29.17
2023-01-01T12:22:16.691Z,32.88
2023-01-01T12:24:44.407Z,34.47
2023-01-01T12:27:14.056Z,36.20
2023-01-01T12:30:06.305Z,37.63
2023-01-01T12:32:32.811Z,33.42
2023-01-01T12:35:23.296Z,30.83
2023-01-01T12:38:18.193Z,31.45
2023-01-01T12:43:24.449Z,27.08
2023-01-01T12:46:00.232Z,25.73
2023-01-01T12:49:19.576Z,24.48
2023-01-01T12:52:31.685Z,23.85
2023-01-01T12:55:22.973Z,22.35
2023-01-01T12:57:57.406Z,22.85
2023-01-01T13:00:24.776Z,21.23
2023-01-01T13:02:58.689Z,21.35
2023-01-01T13:05:36.898Z,21.55
2023-01-01T13:08:05.569Z,21.85
2023-01-01T13:10:38.585Z,21.23
2023-01-01T13:13:05.674Z,20.98
2023-01-01T13:15:37.857Z,20.05
2023-01-01T13:18:18.267Z,21.13
2023-01-01T13:20:55.417Z,21.20
2023-01-01T13:23:38.441Z,24.73
2023-01-01T13:26:20.887Z,23.17
2023-01-01T13:28:59.608Z,22.98
2023-01-01T13:31:38.791Z,24.27
2023-01-01T13:34:30.336Z,23.30
2023-01-01T13:37:15.266Z,25.58
2023-01-01T13:39:52.700Z,26.98
2023-01-01T13:43:06.317Z,27.13
2023-01-01T13:49:03.430Z,33.55
2023-01-01T13:52:09.238Z,36.33
2023-01-01T13:55:13.319Z,37.47
2023-01-01T13:58:00.263Z,37.65
2023-01-01T14:00:54.942Z,37.55
2023-01-01T14:03:23.031Z,37.17
2023-01-01T14:05:56.241Z,32.83
2023-01-01T14:08:41.239Z,32.40
2023-01-01T14:11:24.979Z,29.40
2023-01-01T14:13:51.736Z,30.73
2023-01-01T14:16:18.607Z,28.95
2023-01-01T14:18:58.553Z,30.50
2023-01-01T14:21:34.089Z,31.30
2023-01-01T14:24:08.521Z,30.23
2023-01-01T14:26:38.808Z,37.67
2023-01-01T14:29:10.920Z,38.33
2023-01-01T14:31:46.898Z,41.25
2023-01-01T14:34:27.217Z,43.10
2023-01-01T14:36:56.386Z,52.80
2023-01-01T14:39:31.176Z,71.90
2023-01-01T14:42:09.297Z,93.63
2023-01-01T14:44:39.595Z,115.20
2023-01-01T14:47:26.524Z,135.10
2023-01-01T14:49:55.467Z,134.98
2023-01-01T14:52:28.853Z,145.63
2023-01-01T14:54:59.112Z,149.98
2023-01-01T14:57:28.983Z,149.68
2023-01-01T14:59:56.731Z,149.43
2023-01-01T15:02:30.240Z,143.68
2023-01-01T15:04:58.092Z,123.40
2023-01-01T15:07:28.435Z,113.05
2023-01-01T15:09:57.932Z,83.47
2023-01-01T15:12:24.833Z,69.22
2023-01-01T15:14:53.558Z,63.63
2023-01-01T15:17:22.404Z,57.28
2023-01-01T15:20:06.653Z,56.92
2023-01-01T15:22:37.281Z,55.47
2023-01-01T15:25:04.201Z,55.13
2023-01-01T15:27:36.646Z,57.65
2023-01-01T15:30:13.214Z,59.17
2023-01-01T15:32:41.013Z,64.35
2023-01-01T15:35:33.899Z,66.38
2023-01-01T15:38:14.594Z,70.00
2023-01-01T15:40:42.077Z,68.78
2023-01-01T15:43:21.128Z,72.88
2023-01-01T15:45:59.198Z,67.47
2023-01-01T15:48:46.145Z,67.47
2023-01-01T15:51:19.711Z,68.35
2023-01-01T15:53:51.753Z,70.43
2023-01-01T15:56:20.063Z,74.35
2023-01-01T15:59:17.184Z,70.43
2023-01-01T16:01:44.414Z,68.22
2023-01-01T16:04:13.843Z,76.10
2023-01-01T16:06:49.704Z,69.18
2023-01-01T16:09:18.070Z,63.55
2023-01-01T16:11:45.288Z,64.78
2023-01-01T16:14:12.297Z,61.72
2023-01-01T16:16:40.138Z,64.25
2023-01-01T16:19:11.725Z,68.95
2023-01-01T16:21:38.287Z,61.35
2023-01-01T16:24:06.666Z,58.83
2023-01-01T16:26:33.213Z,60.67
2023-01-01T16:29:01.116Z,56.33
2023-01-01T16:31:28.737Z,67.50
2023-01-01T16:33:57.668Z,66.25
2023-01-01T16:36:27.457Z,66.47
2023-01-01T16:38:54.063Z,71.43
2023-01-01T16:41:20.616Z,70.60
2023-01-01T16:43:47.769Z,80.68
2023-01-01T16:46:15.018Z,80.90
2023-01-01T16:48:42.012Z,72.78
2023-01-01T16:51:18.157Z,87.68
2023-01-01T16:53:45.128Z,89.55
2023-01-01T16:56:12.981Z,101.88
2023-01-01T16:59:02.283Z,98.82
2023-01-01T17:01:26.885Z,99.28
2023-01-01T17:03:53.634Z,99.72
2023-01-01T17:06:20.519Z,109.55
2023-01-01T17:08:47.347Z,118.72
2023-01-01T17:11:17.028Z,117.47
2023-01-01T17:13:45.420Z,122.03
2023-01-01T17:16:13.949Z,122.45
2023-01-01T17:21:28.918Z,117.20
2023-01-01T17:23:56.904Z,120.18
2023-01-01T17:26:26.353Z,126.10
2023-01-01T17:29:00.033Z,131.15
2023-01-01T17:31:28.702Z,121.70
2023-01-01T17:33:55.569Z,123.85
2023-01-01T17:36:22.175Z,111.25
2023-01-01T17:38:48.756Z,125.75
2023-01-01T17:41:16.511Z,118.75
2023-01-01T17:43:49.004Z,147.82
2023-01-01T17:46:20.425Z,130.27
2023-01-01T17:48:48.155Z,126.38
2023-01-01T17:51:16.436Z,130.40
2023-01-01T17:53:43.684Z,127.55
2023-01-01T17:56:16.514Z,132.02
2023-01-01T17:58:44.504Z,124.45
2023-01-01T18:01:11.143Z,124.78
2023-01-01T18:03:38.888Z,133.23
2023-01-01T18:06:06.300Z,138.55
2023-01-01T18:08:33.163Z,129.18
2023-01-01T18:11:00.158Z,116.28
2023-01-01T18:13:27.427Z,108.72
2023-01-01T18:15:54.416Z,112.53
2023-01-01T18:18:21.058Z,111.40
2023-01-01T18:20:47.743Z,116.28
2023-01-01T18:23:14.306Z,112.68
2023-01-01T18:25:40.846Z,107.78
2023-01-01T18:28:10.431Z,110.93
2023-01-01T18:30:37.047Z,118.13
2023-01-01T18:33:03.603Z,131.52
2023-01-01T18:35:30.145Z,114.53
2023-01-01T18:37:57.147Z,108.25
2023-01-01T18:40:24.054Z,103.07
2023-01-01T18:43:06.141Z,120.70
2023-01-01T18:45:34.388Z,99.43
2023-01-01T18:48:06.741Z,101.30
2023-01-01T18:50:35.856Z,99.93
2023-01-01T18:53:16.999Z,107.03
2023-01-01T18:55:43.595Z,100.45
2023-01-01T18:58:24.205Z,102.63
2023-01-01T19:00:53.197Z,98.90
2023-01-01T19:03:28.760Z,99.22
2023-01-01T19:05:56.472Z,100.35
2023-01-01T19:08:23.773Z,100.00
2023-01-01T19:10:59.118Z,104.78
2023-01-01T19:13:31.324Z,98.70
2023-01-01T19:16:17.906Z,100.68
2023-01-01T19:18:46.592Z,99.43
2023-01-01T19:21:13.119Z,100.45
2023-01-01T19:23:48.531Z,99.47
2023-01-01T19:26:36.914Z,97.18
2023-01-01T19:29:14.905Z,101.90
2023-01-01T19:31:41.541Z,105.45
2023-01-01T19:34:10.416Z,105.43
2023-01-01T19:36:37.739Z,103.57
2023-01-01T19:39:05.016Z,109.80
2023-01-01T19:41:31.597Z,104.07
2023-01-01T19:43:58.187Z,106.13
2023-01-01T19:46:24.751Z,103.38
2023-01-01T19:48:53.143Z,102.97
2023-01-01T19:51:22.563Z,107.30
2023-01-01T19:53:53.238Z,101.07
2023-01-01T19:56:20.025Z,105.28
2023-01-01T19:58:47.102Z,102.53
2023-01-01T20:01:14.227Z,101.07
2023-01-01T20:03:57.450Z,103.65
2023-01-01T20:06:25.532Z,106.43
2023-01-01T20:08:52.459Z,103.25
2023-01-01T20:11:20.713Z,106.65
2023-01-01T20:13:47.421Z,108.88
2023-01-01T20:16:14.152Z,106.82
2023-01-01T20:18:40.872Z,107.72
2023-01-01T20:21:27.063Z,112.80
2023-01-01T20:23:54.951Z,101.68
2023-01-01T20:26:23.709Z,106.50
2023-01-01T20:29:09.172Z,102.60
2023-01-01T20:31:35.930Z,107.97
2023-01-01T20:34:02.556Z,109.93
2023-01-01T20:36:47.372Z,108.90
2023-01-01T20:39:14.057Z,107.35
2023-01-01T20:41:40.660Z,111.78
2023-01-01T20:44:07.235Z,108.95
2023-01-01T20:46:33.984Z,108.13
2023-01-01T20:49:00.645Z,111.63
2023-01-01T20:51:27.374Z,106.93
2023-01-01T20:53:53.923Z,112.50
2023-01-01T20:56:20.587Z,110.18
2023-01-01T20:58:56.094Z,107.85
2023-01-01T21:01:26.209Z,109.70
2023-01-01T21:03:52.936Z,104.57
2023-01-01T21:06:24.111Z,106.32
2023-01-01T21:08:51.674Z,107.28
2023-01-01T21:11:18.478Z,104.95
2023-01-01T21:13:45.599Z,102.05
2023-01-01T21:16:28.866Z,105.88
2023-01-01T21:18:56.291Z,104.72
2023-01-01T21:21:29.339Z,106.25
2023-01-01T21:24:12.071Z,104.78
2023-01-01T21:26:38.643Z,101.95
2023-01-01T21:29:11.709Z,102.43
2023-01-01T21:31:38.352Z,104.85
2023-01-01T21:34:24.616Z,100.57
2023-01-01T21:36:51.244Z,102.50
2023-01-01T21:39:26.499Z,99.20
2023-01-01T21:41:53.206Z,104.53
2023-01-01T21:44:19.725Z,104.13
2023-01-01T21:46:55.461Z,105.68
2023-01-01T21:49:35.972Z,102.10
2023-01-01T21:52:04.137Z,99.88
2023-01-01T21:54:36.535Z,101.07
2023-01-01T21:57:17.285Z,101.03
2023-01-01T21:59:47.679Z,102.15
2023-01-01T22:02:14.467Z,102.45
2023-01-01T22:04:43.799Z,108.45
2023-01-01T22:10:16.641Z,104.80
2023-01-01T22:12:43.714Z,106.93
2023-01-01T22:15:29.094Z,108.75
2023-01-01T22:18:15.661Z,101.45
2023-01-01T22:20:44.403Z,103.43
2023-01-01T22:23:34.172Z,105.68
2023-01-01T22:26:14.368Z,105.55
2023-01-01T22:28:43.671Z,103.95
2023-01-01T22:31:26.499Z,101.78
2023-01-01T22:33:55.405Z,97.22
2023-01-01T22:36:30.487Z,98.40
2023-01-01T22:39:26.487Z,97.82
2023-01-01T22:41:53.285Z,98.00
2023-01-01T22:44:19.979Z,101.03
2023-01-01T22:46:46.561Z,106.05
2023-01-01T22:49:23.716Z,98.57
2023-01-01T22:51:58.444Z,91.13
2023-01-01T22:54:25.020Z,92.32
2023-01-01T22:56:51.601Z,94.03
2023-01-01T22:59:18.196Z,97.72
2023-01-01T23:01:44.804Z,98.22
2023-01-01T23:04:11.413Z,96.85
2023-01-01T23:06:38.928Z,93.85
2023-01-01T23:09:06.433Z,94.00
2023-01-01T23:11:33.063Z,92.28
2023-01-01T23:14:18.157Z,101.75
2023-01-01T23:16:44.736Z,93.70
2023-01-01T23:19:11.343Z,99.13
2023-01-01T23:21:42.305Z,103.03
2023-01-01T23:24:16.332Z,104.93
2023-01-01T23:26:43.559Z,102.25
2023-01-01T23:29:11.636Z,93.97
2023-01-01T23:31:39.841Z,88.90
2023-01-01T23:34:06.671Z,90.65
2023-01-01T23:36:34.206Z,96.97
2023-01-01T23:39:00.783Z,91.20
2023-01-01T23:41:27.387Z,93.50
2023-01-01T23:43:53.977Z,99.38
2023-01-01T23:46:20.776Z,91.32
2023-01-01T23:48:48.483Z,94.75
2023-01-01T23:51:16.631Z,88.93
2023-01-01T23:53:43.265Z,92.05
2023-01-01T23:56:09.858Z,93.45
2023-01-01T23:58:36.423Z,91.43
